This is the latest recevied weather packets stored in our database for station/object VE7GEL. If no packets are shown the sender has not sent any weather packets the latest 10 day(s).
| Time | Temp. | Humidity | Pressure | Rain* | Wind** | Luminosity | Snow |
|---|---|---|---|---|---|---|---|
| 1777425383 | 14.44° C | 60% | 1022.7 hPa | 0 mm | - | 310 W/m² | - |
| 1777424485 | 13.33° C | 64% | 1022.6 hPa | 0 mm | - | 158 W/m² | - |
| 1777423584 | 13.89° C | 67% | 1022.6 hPa | 0 mm | - | 163 W/m² | - |
| 1777423502 | 13.89° C | 67% | 1022.8 hPa | 0 mm | - | 164 W/m² | - |
| 1777422684 | 13.89° C | 64% | 1022.6 hPa | 0 mm | - | 157 W/m² | - |
| 1777421783 | 13.89° C | 65% | 1022.6 hPa | 0 mm | - | 172 W/m² | - |
| 1777421704 | 13.89° C | 64% | 1022.8 hPa | 0 mm | - | 172 W/m² | - |
| 1777420882 | 13.89° C | 66% | 1022.6 hPa | 0 mm | - | 225 W/m² | - |
| 1777419982 | 12.78° C | 71% | 1022.5 hPa | 0 mm | - | 191 W/m² | - |
| 1777419903 | 12.78° C | 70% | 1022.8 hPa | 0 mm | - | 195 W/m² | - |
| 1777419080 | 12.78° C | 71% | 1022.5 hPa | 0 mm | - | 198 W/m² | - |
| 1777418178 | 12.78° C | 69% | 1022.5 hPa | 0 mm | - | 97 W/m² | - |
| 1777417279 | 12.78° C | 72% | 1022.4 hPa | 0 mm | - | 56 W/m² | - |
| 1777416379 | 12.78° C | 70% | 1022.3 hPa | 0 mm | - | 37 W/m² | - |
| 1777416302 | 12.78° C | 69% | 1022.6 hPa | 0 mm | - | 37 W/m² | - |
| 1777415479 | 12.78° C | 72% | 1022.3 hPa | 0 mm | - | 68 W/m² | - |
| 1777415402 | 13.33° C | 72% | 1022.6 hPa | 0 mm | - | 77 W/m² | - |
| 1777414578 | 13.89° C | 69% | 1022.3 hPa | 0 mm | - | 245 W/m² | - |
| 1777414502 | 13.89° C | 68% | 1022.6 hPa | 0 mm | - | 253 W/m² | - |
| 1777413677 | 13.33° C | 73% | 1022.3 hPa | 0 mm | - | 203 W/m² | - |
| 1777412776 | 13.33° C | 71% | 1022.2 hPa | 0 mm | - | 163 W/m² | - |
| 1777412703 | 13.33° C | 71% | 1022.5 hPa | 0 mm | - | 156 W/m² | - |
| 1777411879 | 13.33° C | 70% | 1022.2 hPa | 0 mm | - | 190 W/m² | - |
| 1777410975 | 13.33° C | 71% | 1022.1 hPa | 0 mm | - | 229 W/m² | - |
| 1777410902 | 13.33° C | 71% | 1022.4 hPa | 0 mm | - | 229 W/m² | - |
* Rain latest hour (hover to see other rain measurements)
** Current wind speed in m/s (hover to see current wind gust speed)